Time;durP1;ratioP1;P1;durP2;ratioP2;P2;SDS_P1;SDS_P2;PMS_P1;PMS_P2;Temp;Humidity;BMP_temperature;BMP_pressure;BME280_temperature;BME280_humidity;BME280_pressure;Samples;Min_cycle;Max_cycle;Signal;HPM_P1;HPM_P2
2022/07/26 00:00:53;;;;;;;1.70;1.47;;;;;;;;;;5091512;28;21024;-74
2022/07/26 00:03:20;;;;;;;1.37;1.13;;;;;;;;;;5092152;28;20560;-73
2022/07/26 00:05:49;;;;;;;1.73;1.63;;;;;;;;;;5099974;28;20531;-73
2022/07/26 00:08:16;;;;;;;1.67;1.37;;;;;;;;;;5093600;28;20461;-73
2022/07/26 00:10:44;;;;;;;3.07;1.43;;;;;;;;;;5091371;28;20961;-74
2022/07/26 00:13:11;;;;;;;2.63;1.40;;;;;;;;;;5092294;28;20469;-74
2022/07/26 00:15:39;;;;;;;1.80;1.40;;;;;;;;;;5091666;28;20441;-73
2022/07/26 00:18:07;;;;;;;3.37;1.83;;;;;;;;;;5092395;28;20487;-73
2022/07/26 00:20:34;;;;;;;2.37;2.07;;;;;;;;;;5090394;28;20958;-73
2022/07/26 00:23:03;;;;;;;1.70;1.60;;;;;;;;;;5091906;28;20508;-73
2022/07/26 00:25:30;;;;;;;1.90;1.80;;;;;;;;;;5092113;28;20445;-74
2022/07/26 00:27:57;;;;;;;1.73;1.33;;;;;;;;;;5091264;28;20445;-74
2022/07/26 00:30:24;;;;;;;1.53;1.40;;;;;;;;;;5091002;28;21309;-74
2022/07/26 00:32:52;;;;;;;2.20;1.40;;;;;;;;;;5091542;28;20479;-74
2022/07/26 00:35:19;;;;;;;2.13;1.97;;;;;;;;;;5095149;28;20480;-74
2022/07/26 00:37:47;;;;;;;3.57;1.37;;;;;;;;;;5091084;28;20481;-73
2022/07/26 00:40:16;;;;;;;1.57;1.17;;;;;;;;;;5091186;28;20547;-74
2022/07/26 00:42:43;;;;;;;4.43;1.60;;;;;;;;;;5090718;28;20451;-74
2022/07/26 00:45:11;;;;;;;1.80;1.40;;;;;;;;;;5091642;28;20449;-73
2022/07/26 00:47:38;;;;;;;3.40;1.70;;;;;;;;;;5090885;28;20441;-73
2022/07/26 00:50:06;;;;;;;1.37;1.20;;;;;;;;;;5090666;28;20449;-73
2022/07/26 00:52:34;;;;;;;2.93;1.13;;;;;;;;;;5090949;28;20455;-71
2022/07/26 00:55:01;;;;;;;2.43;1.30;;;;;;;;;;5091344;28;20437;-73
2022/07/26 00:57:29;;;;;;;1.53;1.23;;;;;;;;;;5091476;28;20997;-74
2022/07/26 00:59:59;;;;;;;1.77;1.30;;;;;;;;;;5090141;28;20939;-73
2022/07/26 01:02:27;;;;;;;1.67;1.37;;;;;;;;;;5091393;28;20471;-73
2022/07/26 01:04:54;;;;;;;1.00;0.90;;;;;;;;;;5091490;28;20484;-73
2022/07/26 01:07:22;;;;;;;1.37;1.17;;;;;;;;;;5102698;28;20450;-74
2022/07/26 01:09:50;;;;;;;1.20;0.97;;;;;;;;;;5090836;28;20479;-74
2022/07/26 01:12:17;;;;;;;3.17;1.00;;;;;;;;;;5091931;28;20525;-73
2022/07/26 01:14:46;;;;;;;1.23;1.00;;;;;;;;;;5103987;28;20844;-75
2022/07/26 01:17:14;;;;;;;0.80;0.80;;;;;;;;;;5105394;28;20472;-75
2022/07/26 01:19:41;;;;;;;1.53;1.20;;;;;;;;;;5103644;28;20902;-74
2022/07/26 01:22:09;;;;;;;1.37;1.00;;;;;;;;;;5102204;28;20524;-74
2022/07/26 01:24:37;;;;;;;0.80;0.80;;;;;;;;;;5099233;28;20544;-74
2022/07/26 01:27:04;;;;;;;1.17;1.07;;;;;;;;;;5091980;28;20441;-73
2022/07/26 01:29:32;;;;;;;0.97;0.70;;;;;;;;;;5090932;28;20524;-74
2022/07/26 01:32:00;;;;;;;1.77;0.87;;;;;;;;;;5090549;28;20808;-75
2022/07/26 01:34:27;;;;;;;1.63;0.90;;;;;;;;;;5091066;28;20472;-74
2022/07/26 01:36:55;;;;;;;1.27;1.00;;;;;;;;;;5093350;28;20510;-74
2022/07/26 01:39:23;;;;;;;1.23;1.13;;;;;;;;;;5090858;28;20449;-74
2022/07/26 01:41:51;;;;;;;1.03;0.93;;;;;;;;;;5089657;28;20950;-73
2022/07/26 01:44:18;;;;;;;0.97;0.60;;;;;;;;;;5090673;28;21000;-74
2022/07/26 01:46:45;;;;;;;1.00;0.80;;;;;;;;;;5089834;28;20528;-74
2022/07/26 01:49:12;;;;;;;1.30;0.80;;;;;;;;;;5090252;28;20469;-75
2022/07/26 01:51:39;;;;;;;1.20;0.90;;;;;;;;;;5089808;28;20929;-74
2022/07/26 01:54:06;;;;;;;1.13;1.03;;;;;;;;;;5090438;28;20449;-74
2022/07/26 01:56:35;;;;;;;1.03;0.90;;;;;;;;;;5090629;28;20452;-72
2022/07/26 01:59:02;;;;;;;1.13;0.83;;;;;;;;;;5090428;28;20476;-74
2022/07/26 02:01:29;;;;;;;3.00;1.10;;;;;;;;;;5090571;28;20461;-74
2022/07/26 02:03:57;;;;;;;1.00;0.90;;;;;;;;;;5080584;28;20793;-74
2022/07/26 02:06:24;;;;;;;1.33;1.23;;;;;;;;;;5102881;28;20937;-74
2022/07/26 02:08:51;;;;;;;0.80;0.80;;;;;;;;;;5097526;28;20457;-73
2022/07/26 02:11:18;;;;;;;1.43;1.00;;;;;;;;;;5104065;28;20525;-73
2022/07/26 02:13:46;;;;;;;1.20;1.00;;;;;;;;;;5103021;28;20837;-75
2022/07/26 02:16:14;;;;;;;1.43;1.30;;;;;;;;;;5098202;28;20433;-74
2022/07/26 02:18:42;;;;;;;0.93;0.70;;;;;;;;;;5092635;28;20480;-74
2022/07/26 02:21:10;;;;;;;0.90;0.80;;;;;;;;;;5091065;28;20453;-74
2022/07/26 02:23:37;;;;;;;1.50;0.83;;;;;;;;;;5090975;28;20445;-73
2022/07/26 02:26:04;;;;;;;1.10;0.80;;;;;;;;;;5091382;28;20449;-74
2022/07/26 02:28:31;;;;;;;1.30;1.20;;;;;;;;;;5091144;28;20468;-75
2022/07/26 02:31:00;;;;;;;1.20;1.07;;;;;;;;;;5090973;28;20860;-75
2022/07/26 02:33:28;;;;;;;1.30;1.00;;;;;;;;;;5094355;28;20790;-74
2022/07/26 02:35:55;;;;;;;2.30;0.90;;;;;;;;;;5096514;28;20433;-74
2022/07/26 02:38:22;;;;;;;1.20;0.93;;;;;;;;;;5094532;28;20480;-74
2022/07/26 02:40:51;;;;;;;2.10;0.90;;;;;;;;;;5093781;28;20461;-74
2022/07/26 02:43:18;;;;;;;0.83;0.70;;;;;;;;;;5094226;28;20452;-73
2022/07/26 02:45:45;;;;;;;0.80;0.80;;;;;;;;;;5094215;28;20449;-73
2022/07/26 02:48:14;;;;;;;1.87;1.13;;;;;;;;;;5094159;28;20453;-74
2022/07/26 02:50:41;;;;;;;2.10;1.00;;;;;;;;;;5093091;28;20445;-73
2022/07/26 02:53:08;;;;;;;1.50;1.20;;;;;;;;;;5094287;28;20523;-74
2022/07/26 02:55:35;;;;;;;1.10;1.00;;;;;;;;;;5093147;28;20928;-73
2022/07/26 02:58:02;;;;;;;1.87;1.20;;;;;;;;;;5094085;28;20486;-74
2022/07/26 03:00:30;;;;;;;1.00;0.90;;;;;;;;;;5093787;28;20455;-74
2022/07/26 03:02:57;;;;;;;1.50;1.40;;;;;;;;;;5093236;28;20530;-74
2022/07/26 03:05:26;;;;;;;1.40;0.80;;;;;;;;;;5093746;28;20464;-73
2022/07/26 03:07:53;;;;;;;0.87;0.80;;;;;;;;;;5093194;28;20456;-73
2022/07/26 03:10:20;;;;;;;0.83;0.80;;;;;;;;;;5093357;28;20472;-73
2022/07/26 03:12:47;;;;;;;0.80;0.70;;;;;;;;;;5092979;28;20455;-73
2022/07/26 03:15:14;;;;;;;0.90;0.90;;;;;;;;;;5093721;28;20808;-73
2022/07/26 03:17:41;;;;;;;1.23;0.90;;;;;;;;;;5092992;28;20484;-73
2022/07/26 03:20:09;;;;;;;1.43;0.80;;;;;;;;;;5093271;28;20459;-73
2022/07/26 03:22:38;;;;;;;1.00;0.80;;;;;;;;;;5092996;28;20842;-73
2022/07/26 03:25:05;;;;;;;1.30;1.10;;;;;;;;;;5093397;28;20537;-73
2022/07/26 03:27:33;;;;;;;1.17;0.87;;;;;;;;;;5093262;28;20473;-68
2022/07/26 03:30:00;;;;;;;1.27;0.90;;;;;;;;;;5093017;28;21014;-73
2022/07/26 03:32:27;;;;;;;1.10;1.00;;;;;;;;;;5092949;28;20457;-73
2022/07/26 03:34:54;;;;;;;2.97;1.43;;;;;;;;;;5093856;28;20554;-73
2022/07/26 03:37:22;;;;;;;1.33;1.00;;;;;;;;;;5095235;28;20441;-73
2022/07/26 03:39:50;;;;;;;1.73;1.20;;;;;;;;;;5091279;28;20469;-74
2022/07/26 03:42:17;;;;;;;1.00;0.90;;;;;;;;;;5093067;28;20483;-73
2022/07/26 03:44:44;;;;;;;1.13;1.03;;;;;;;;;;5091555;28;20528;-72
2022/07/26 03:47:12;;;;;;;1.33;0.97;;;;;;;;;;5092732;28;20448;-74
2022/07/26 03:49:39;;;;;;;1.40;0.83;;;;;;;;;;5092170;28;20958;-74
2022/07/26 03:52:06;;;;;;;1.07;0.97;;;;;;;;;;5092399;28;20452;-74
2022/07/26 03:54:33;;;;;;;1.10;0.97;;;;;;;;;;5092637;28;20847;-70
2022/07/26 03:57:01;;;;;;;1.30;1.03;;;;;;;;;;5092768;28;21236;-74
2022/07/26 03:59:28;;;;;;;1.00;0.90;;;;;;;;;;5092980;28;20529;-74
2022/07/26 04:01:55;;;;;;;1.60;1.07;;;;;;;;;;5091688;28;20540;-74
2022/07/26 04:04:22;;;;;;;2.47;1.30;;;;;;;;;;5092515;28;20449;-74
2022/07/26 04:06:49;;;;;;;1.50;1.07;;;;;;;;;;5103829;28;20495;-74
2022/07/26 04:09:16;;;;;;;1.17;1.07;;;;;;;;;;5092262;28;20970;-73
2022/07/26 04:11:44;;;;;;;1.53;1.10;;;;;;;;;;5091272;28;20951;-74
2022/07/26 04:14:12;;;;;;;1.30;1.20;;;;;;;;;;5092450;28;20515;-74
2022/07/26 04:16:39;;;;;;;1.07;0.90;;;;;;;;;;5091814;28;20487;-74
2022/07/26 04:19:07;;;;;;;1.50;1.40;;;;;;;;;;5092059;28;20998;-74
2022/07/26 04:21:34;;;;;;;1.27;0.90;;;;;;;;;;5091153;28;20463;-72
2022/07/26 04:24:01;;;;;;;1.10;1.00;;;;;;;;;;5092523;28;20665;-74
2022/07/26 04:26:29;;;;;;;1.47;1.30;;;;;;;;;;5092143;28;20532;-74
2022/07/26 04:28:56;;;;;;;1.43;1.10;;;;;;;;;;5091795;28;20448;-74
2022/07/26 04:31:25;;;;;;;1.67;1.10;;;;;;;;;;5091809;28;20497;-73
2022/07/26 04:33:52;;;;;;;1.73;1.37;;;;;;;;;;5090851;28;21025;-74
2022/07/26 04:36:19;;;;;;;2.33;1.20;;;;;;;;;;5090951;28;20441;-74
2022/07/26 04:38:46;;;;;;;1.97;1.20;;;;;;;;;;5091093;28;20476;-70
2022/07/26 04:41:13;;;;;;;1.80;1.07;;;;;;;;;;5091250;28;20455;-73
2022/07/26 04:43:56;;;;;;;1.17;1.07;;;;;;;;;;5068032;28;20465;-70
2022/07/26 04:46:25;;;;;;;1.37;1.27;;;;;;;;;;5091487;28;20464;-70
2022/07/26 04:48:52;;;;;;;1.40;1.30;;;;;;;;;;5091077;28;20484;-70
2022/07/26 04:51:19;;;;;;;1.47;1.27;;;;;;;;;;5090533;28;20445;-69
2022/07/26 04:53:46;;;;;;;1.97;1.37;;;;;;;;;;5090822;28;20532;-74
2022/07/26 04:56:13;;;;;;;1.57;1.20;;;;;;;;;;5091631;28;20449;-71
2022/07/26 04:58:41;;;;;;;2.17;1.57;;;;;;;;;;5098076;28;20511;-74
2022/07/26 05:01:08;;;;;;;1.63;1.20;;;;;;;;;;5098376;28;20537;-70
2022/07/26 05:03:36;;;;;;;1.30;1.00;;;;;;;;;;5089792;28;20452;-67
2022/07/26 05:06:04;;;;;;;1.70;1.20;;;;;;;;;;5093553;28;20452;-69
2022/07/26 05:08:31;;;;;;;1.70;1.03;;;;;;;;;;5090990;28;20999;-70
2022/07/26 05:10:58;;;;;;;1.37;1.00;;;;;;;;;;5090978;28;20531;-73
2022/07/26 05:13:25;;;;;;;1.60;1.50;;;;;;;;;;5091151;28;20455;-73
2022/07/26 05:15:52;;;;;;;1.73;1.17;;;;;;;;;;5090121;28;20545;-73
2022/07/26 05:18:20;;;;;;;1.17;1.07;;;;;;;;;;5090835;28;20484;-72
2022/07/26 05:20:51;;;;;;;1.73;1.47;;;;;;;;;;5089431;28;20453;-72
2022/07/26 05:23:19;;;;;;;1.70;1.40;;;;;;;;;;5092331;28;20520;-68
2022/07/26 05:25:46;;;;;;;1.70;1.50;;;;;;;;;;5091643;28;20471;-72
2022/07/26 05:28:13;;;;;;;1.30;1.10;;;;;;;;;;5091839;28;20460;-72
2022/07/26 05:30:40;;;;;;;2.50;1.60;;;;;;;;;;5091078;28;20444;-72
2022/07/26 05:33:07;;;;;;;1.90;1.40;;;;;;;;;;5091765;28;21018;-72
2022/07/26 05:35:34;;;;;;;1.67;1.57;;;;;;;;;;5093522;28;20991;-72
2022/07/26 05:38:03;;;;;;;1.77;1.43;;;;;;;;;;5091322;28;20440;-72
2022/07/26 05:40:30;;;;;;;3.00;1.63;;;;;;;;;;5091581;28;20495;-72
2022/07/26 05:42:57;;;;;;;2.23;1.80;;;;;;;;;;5091430;28;20448;-71
2022/07/26 05:45:24;;;;;;;2.07;1.60;;;;;;;;;;5097128;28;20488;-72
2022/07/26 05:47:52;;;;;;;2.00;1.27;;;;;;;;;;5098760;28;20505;-72
2022/07/26 05:50:19;;;;;;;1.70;1.60;;;;;;;;;;5098942;28;20459;-73
2022/07/26 05:52:47;;;;;;;1.80;1.50;;;;;;;;;;5094305;28;20536;-72
2022/07/26 05:55:15;;;;;;;1.70;1.60;;;;;;;;;;5093680;28;20445;-72
2022/07/26 05:57:46;;;;;;;1.40;1.27;;;;;;;;;;5092152;28;20440;-71
2022/07/26 06:00:13;;;;;;;2.33;1.87;;;;;;;;;;5092094;28;20504;-71
2022/07/26 06:02:41;;;;;;;2.40;2.13;;;;;;;;;;5091145;28;20459;-72
2022/07/26 06:05:08;;;;;;;3.73;1.77;;;;;;;;;;5093844;28;20479;-71
2022/07/26 06:07:35;;;;;;;1.50;1.40;;;;;;;;;;5103042;28;20923;-72
2022/07/26 06:10:02;;;;;;;2.10;1.90;;;;;;;;;;5095758;28;20479;-71
2022/07/26 06:12:31;;;;;;;1.37;1.27;;;;;;;;;;5095466;28;20452;-72
2022/07/26 06:14:58;;;;;;;4.67;1.90;;;;;;;;;;5094974;28;20814;-71
2022/07/26 06:17:28;;;;;;;3.77;1.97;;;;;;;;;;5095011;28;20512;-71
2022/07/26 06:19:56;;;;;;;1.53;1.43;;;;;;;;;;5094329;28;20624;-71
2022/07/26 06:22:23;;;;;;;2.13;1.40;;;;;;;;;;5094302;28;20456;-71
2022/07/26 06:24:50;;;;;;;1.63;1.10;;;;;;;;;;5093881;28;20452;-72
2022/07/26 06:27:17;;;;;;;2.77;1.40;;;;;;;;;;5095036;28;20452;-71
2022/07/26 06:29:47;;;;;;;1.40;1.30;;;;;;;;;;5094303;28;20455;-73
2022/07/26 06:32:14;;;;;;;1.00;0.90;;;;;;;;;;5094623;28;20440;-73
2022/07/26 06:34:41;;;;;;;1.83;1.20;;;;;;;;;;5093441;28;20472;-73
2022/07/26 06:37:08;;;;;;;2.10;1.33;;;;;;;;;;5097565;28;20451;-72
2022/07/26 06:39:35;;;;;;;1.20;1.10;;;;;;;;;;5093700;28;20821;-72
2022/07/26 06:42:03;;;;;;;1.53;1.40;;;;;;;;;;5094739;28;20527;-73
2022/07/26 06:44:30;;;;;;;2.53;0.97;;;;;;;;;;5093948;28;20560;-72
2022/07/26 06:46:58;;;;;;;1.10;1.00;;;;;;;;;;5093462;28;20445;-72
2022/07/26 06:49:25;;;;;;;1.30;1.10;;;;;;;;;;5093906;28;20545;-72
2022/07/26 06:51:53;;;;;;;2.20;1.17;;;;;;;;;;5093595;28;20532;-72
2022/07/26 06:54:20;;;;;;;1.13;0.73;;;;;;;;;;5093776;28;20452;-72
2022/07/26 06:56:47;;;;;;;1.00;0.90;;;;;;;;;;5093662;28;20449;-71
2022/07/26 06:59:14;;;;;;;1.33;0.90;;;;;;;;;;5093950;28;20484;-72
2022/07/26 07:01:41;;;;;;;1.87;1.00;;;;;;;;;;5093908;28;20452;-72
2022/07/26 07:04:10;;;;;;;1.20;1.00;;;;;;;;;;5093718;28;20822;-71
2022/07/26 07:06:37;;;;;;;0.90;0.80;;;;;;;;;;5105124;28;20451;-71
2022/07/26 07:09:04;;;;;;;1.10;1.00;;;;;;;;;;5093622;28;20452;-72
2022/07/26 07:11:31;;;;;;;1.43;1.10;;;;;;;;;;5093674;28;20958;-72
2022/07/26 07:14:01;;;;;;;2.10;1.20;;;;;;;;;;5094101;28;20453;-72
2022/07/26 07:16:29;;;;;;;1.10;1.00;;;;;;;;;;5093633;28;20525;-72
2022/07/26 07:18:56;;;;;;;0.60;0.57;;;;;;;;;;5092702;28;20539;-72
2022/07/26 07:21:25;;;;;;;1.23;0.77;;;;;;;;;;5093268;28;20449;-71
2022/07/26 07:23:52;;;;;;;1.47;0.60;;;;;;;;;;5092908;28;20874;-72
2022/07/26 07:26:19;;;;;;;1.40;1.00;;;;;;;;;;5093216;28;20561;-72
2022/07/26 07:28:46;;;;;;;2.03;0.80;;;;;;;;;;5092738;28;20457;-71
2022/07/26 07:31:13;;;;;;;1.50;1.10;;;;;;;;;;5093315;28;20449;-72
2022/07/26 07:33:41;;;;;;;1.00;0.80;;;;;;;;;;5092377;28;20456;-72
2022/07/26 07:36:08;;;;;;;1.10;1.00;;;;;;;;;;5096064;28;20862;-72
2022/07/26 07:38:36;;;;;;;3.73;1.20;;;;;;;;;;5092755;28;20478;-72
2022/07/26 07:41:04;;;;;;;4.20;0.93;;;;;;;;;;5093218;28;20495;-72
2022/07/26 07:43:31;;;;;;;1.20;1.10;;;;;;;;;;5093025;28;20456;-72
2022/07/26 07:45:58;;;;;;;1.47;1.20;;;;;;;;;;5092816;28;20441;-72
2022/07/26 07:48:25;;;;;;;1.27;0.80;;;;;;;;;;5092921;28;20856;-72
2022/07/26 07:50:52;;;;;;;1.47;1.13;;;;;;;;;;5092212;28;20484;-73
2022/07/26 07:53:19;;;;;;;0.80;0.80;;;;;;;;;;5092821;28;21003;-72
2022/07/26 07:55:48;;;;;;;1.10;0.73;;;;;;;;;;5092350;28;20862;-72
2022/07/26 07:58:15;;;;;;;1.30;1.03;;;;;;;;;;5093210;28;20463;-72
2022/07/26 08:00:43;;;;;;;1.10;0.93;;;;;;;;;;5092100;28;21063;-71
2022/07/26 08:03:10;;;;;;;0.90;0.83;;;;;;;;;;5092764;28;20471;-72
2022/07/26 08:05:37;;;;;;;3.33;0.97;;;;;;;;;;5098687;28;20451;-71
2022/07/26 08:08:05;;;;;;;1.20;1.00;;;;;;;;;;5097924;28;20449;-72
2022/07/26 08:10:32;;;;;;;3.90;1.00;;;;;;;;;;5092854;28;20491;-73
2022/07/26 08:13:01;;;;;;;1.00;0.80;;;;;;;;;;5092702;28;20450;-72
2022/07/26 08:15:28;;;;;;;1.70;0.90;;;;;;;;;;5092198;28;20475;-71
2022/07/26 08:17:55;;;;;;;3.43;0.87;;;;;;;;;;5091962;28;20448;-71
2022/07/26 08:20:22;;;;;;;1.73;0.77;;;;;;;;;;5092685;28;20480;-73
2022/07/26 08:22:49;;;;;;;1.37;0.90;;;;;;;;;;5091670;28;20444;-72
2022/07/26 08:25:17;;;;;;;1.57;0.80;;;;;;;;;;5091843;28;20445;-71
2022/07/26 08:27:44;;;;;;;1.37;0.87;;;;;;;;;;5091947;28;20453;-72
2022/07/26 08:30:13;;;;;;;1.37;0.90;;;;;;;;;;5091836;28;20451;-72
2022/07/26 08:32:40;;;;;;;2.90;1.10;;;;;;;;;;5091747;28;20461;-72
2022/07/26 08:35:08;;;;;;;1.47;0.77;;;;;;;;;;5094157;28;20551;-71
2022/07/26 08:37:35;;;;;;;1.00;0.83;;;;;;;;;;5091611;28;20520;-72
2022/07/26 08:40:02;;;;;;;1.97;0.93;;;;;;;;;;5092396;28;20523;-71
2022/07/26 08:42:30;;;;;;;1.10;1.00;;;;;;;;;;5092443;28;20453;-71
2022/07/26 08:44:57;;;;;;;1.83;0.87;;;;;;;;;;5091303;28;20500;-72
2022/07/26 08:47:26;;;;;;;1.63;1.10;;;;;;;;;;5091868;28;20451;-72
2022/07/26 08:49:53;;;;;;;1.63;0.70;;;;;;;;;;5091631;28;20817;-72
2022/07/26 08:52:20;;;;;;;1.30;1.00;;;;;;;;;;5091821;28;20788;-73
2022/07/26 08:54:48;;;;;;;0.90;0.90;;;;;;;;;;5090990;28;20441;-71
2022/07/26 08:57:16;;;;;;;1.20;1.10;;;;;;;;;;5091928;28;20441;-73
2022/07/26 08:59:43;;;;;;;1.90;1.07;;;;;;;;;;5091540;28;20508;-72
2022/07/26 09:02:11;;;;;;;1.20;0.70;;;;;;;;;;5092078;28;20450;-72
2022/07/26 09:04:41;;;;;;;1.47;0.93;;;;;;;;;;5090897;28;20455;-72
2022/07/26 09:07:09;;;;;;;1.00;0.80;;;;;;;;;;5104095;28;20585;-71
2022/07/26 09:09:37;;;;;;;0.90;0.73;;;;;;;;;;5091205;28;20532;-71
2022/07/26 09:12:16;;;;;;;1.90;0.70;;;;;;;;;;5091492;28;20903;-71
2022/07/26 09:14:45;;;;;;;1.07;0.83;;;;;;;;;;5090238;28;20501;-71
2022/07/26 09:17:12;;;;;;;1.73;1.17;;;;;;;;;;5091802;28;20449;-71
2022/07/26 09:19:41;;;;;;;0.90;0.70;;;;;;;;;;5091124;28;20482;-72
2022/07/26 09:22:10;;;;;;;1.10;1.00;;;;;;;;;;5091493;28;20460;-72
2022/07/26 09:24:39;;;;;;;1.10;0.83;;;;;;;;;;5096948;28;20952;-72
2022/07/26 09:27:08;;;;;;;0.87;0.80;;;;;;;;;;5101714;28;20455;-72
2022/07/26 09:29:44;;;;;;;1.23;0.90;;;;;;;;;;5101952;28;20471;-73
2022/07/26 09:32:15;;;;;;;2.07;1.23;;;;;;;;;;5092579;28;20440;-72
2022/07/26 09:34:44;;;;;;;1.20;0.70;;;;;;;;;;5091204;28;20488;-72
2022/07/26 09:37:11;;;;;;;1.07;0.80;;;;;;;;;;5095122;28;20445;-72
2022/07/26 09:39:53;;;;;;;1.60;0.70;;;;;;;;;;5090963;28;20924;-72
2022/07/26 09:42:20;;;;;;;0.90;0.73;;;;;;;;;;5098290;28;20812;-72
2022/07/26 09:44:47;;;;;;;2.00;1.00;;;;;;;;;;5097897;28;20804;-72
2022/07/26 09:47:14;;;;;;;0.80;0.70;;;;;;;;;;5098446;28;20539;-73
2022/07/26 09:49:43;;;;;;;0.90;0.67;;;;;;;;;;5097674;28;20551;-72
2022/07/26 09:52:14;;;;;;;1.03;0.60;;;;;;;;;;5098101;28;20444;-74
2022/07/26 09:54:44;;;;;;;0.90;0.80;;;;;;;;;;5097438;28;20443;-73
2022/07/26 09:57:12;;;;;;;0.73;0.70;;;;;;;;;;5098316;28;20443;-73
2022/07/26 09:59:39;;;;;;;1.00;0.80;;;;;;;;;;5097347;28;20483;-72
2022/07/26 10:02:06;;;;;;;2.43;0.80;;;;;;;;;;5098007;28;20879;-72
2022/07/26 10:04:34;;;;;;;0.80;0.60;;;;;;;;;;5097054;28;20528;-68
2022/07/26 10:07:03;;;;;;;1.07;0.80;;;;;;;;;;5110786;28;20445;-72
2022/07/26 10:09:33;;;;;;;1.60;1.10;;;;;;;;;;5097790;28;20448;-72
2022/07/26 10:12:02;;;;;;;1.60;0.80;;;;;;;;;;5097976;28;20443;-71
2022/07/26 10:14:35;;;;;;;1.10;0.70;;;;;;;;;;5097463;28;20466;-72
2022/07/26 10:17:23;;;;;;;1.53;0.70;;;;;;;;;;5097985;28;20448;-72
2022/07/26 10:19:50;;;;;;;1.23;0.80;;;;;;;;;;5096947;28;20448;-72
2022/07/26 10:22:24;;;;;;;0.60;0.50;;;;;;;;;;5097383;28;20748;-71
2022/07/26 10:24:52;;;;;;;0.70;0.70;;;;;;;;;;5096693;28;20440;-73
2022/07/26 10:27:37;;;;;;;1.17;0.90;;;;;;;;;;5096911;28;20994;-72
2022/07/26 10:30:23;;;;;;;1.20;0.80;;;;;;;;;;5085001;28;20883;-72
2022/07/26 10:32:58;;;;;;;1.00;0.90;;;;;;;;;;5096482;28;20539;-72
2022/07/26 10:35:32;;;;;;;1.10;0.80;;;;;;;;;;5099807;28;20471;-71
2022/07/26 10:38:01;;;;;;;0.87;0.60;;;;;;;;;;5096988;28;20476;-72
2022/07/26 10:40:29;;;;;;;4.00;1.00;;;;;;;;;;5096833;28;20484;-72
2022/07/26 10:43:10;;;;;;;1.83;0.70;;;;;;;;;;5096558;28;20448;-71
2022/07/26 10:45:37;;;;;;;3.17;0.90;;;;;;;;;;5096086;28;20448;-71
2022/07/26 10:48:15;;;;;;;0.90;0.90;;;;;;;;;;5096998;28;20460;-72
2022/07/26 10:50:42;;;;;;;1.47;0.90;;;;;;;;;;5096784;28;20794;-70
2022/07/26 10:53:11;;;;;;;2.33;0.90;;;;;;;;;;5093695;28;20448;-72
2022/07/26 10:55:45;;;;;;;0.60;0.60;;;;;;;;;;5092952;28;20459;-72
2022/07/26 10:58:13;;;;;;;0.83;0.50;;;;;;;;;;5093339;28;20444;-72
2022/07/26 11:00:40;;;;;;;1.07;0.73;;;;;;;;;;5093163;28;20480;-73
2022/07/26 11:03:07;;;;;;;1.33;0.77;;;;;;;;;;5093520;28;20551;-72
2022/07/26 11:05:34;;;;;;;0.90;0.77;;;;;;;;;;5099251;28;20466;-71
2022/07/26 11:08:06;;;;;;;0.80;0.67;;;;;;;;;;5098299;28;20444;-72
2022/07/26 11:10:36;;;;;;;0.90;0.70;;;;;;;;;;5092961;28;20456;-69
2022/07/26 11:13:05;;;;;;;1.30;0.90;;;;;;;;;;5093564;28;20540;-70
2022/07/26 11:15:32;;;;;;;0.70;0.60;;;;;;;;;;5093385;28;20890;-72
2022/07/26 11:18:16;;;;;;;0.93;0.83;;;;;;;;;;5093328;28;20528;-72
2022/07/26 11:20:44;;;;;;;1.20;0.90;;;;;;;;;;5092703;28;20559;-71
2022/07/26 11:23:30;;;;;;;0.80;0.77;;;;;;;;;;5092912;28;20540;-72
2022/07/26 11:26:18;;;;;;;1.00;0.83;;;;;;;;;;5092187;28;20966;-71
2022/07/26 11:28:46;;;;;;;0.97;0.80;;;;;;;;;;5092606;28;20456;-73
2022/07/26 11:31:13;;;;;;;1.20;1.00;;;;;;;;;;5092897;28;20809;-72
2022/07/26 11:33:41;;;;;;;0.80;0.77;;;;;;;;;;5092078;28;20460;-72
2022/07/26 11:36:09;;;;;;;0.90;0.80;;;;;;;;;;5095881;28;20939;-73
2022/07/26 11:38:50;;;;;;;0.97;0.70;;;;;;;;;;5092451;28;20840;-73
2022/07/26 11:41:21;;;;;;;0.60;0.50;;;;;;;;;;5081351;28;20490;-72
2022/07/26 11:43:48;;;;;;;1.33;0.77;;;;;;;;;;5091972;28;20449;-72
2022/07/26 11:46:16;;;;;;;2.30;1.00;;;;;;;;;;5092545;28;20449;-73
2022/07/26 11:48:46;;;;;;;0.80;0.70;;;;;;;;;;5092074;28;20444;-73
2022/07/26 11:51:15;;;;;;;1.10;0.80;;;;;;;;;;5092517;28;20476;-70
2022/07/26 11:53:42;;;;;;;1.00;0.70;;;;;;;;;;5091558;28;20954;-70
2022/07/26 11:56:16;;;;;;;1.37;0.90;;;;;;;;;;5092244;28;20524;-72
2022/07/26 11:58:46;;;;;;;0.90;0.80;;;;;;;;;;5091832;28;20472;-73
2022/07/26 12:01:14;;;;;;;1.23;0.90;;;;;;;;;;5092561;28;20484;-73
2022/07/26 12:03:42;;;;;;;0.80;0.60;;;;;;;;;;5090399;28;20453;-72
2022/07/26 12:06:10;;;;;;;1.00;0.80;;;;;;;;;;5103210;28;20527;-74
2022/07/26 12:08:45;;;;;;;0.77;0.77;;;;;;;;;;5091889;28;20460;-72
2022/07/26 12:11:12;;;;;;;0.67;0.63;;;;;;;;;;5092082;28;20527;-72
2022/07/26 12:13:57;;;;;;;1.63;0.67;;;;;;;;;;5091377;28;20460;-73
2022/07/26 12:16:41;;;;;;;0.77;0.70;;;;;;;;;;5091960;28;20961;-73
2022/07/26 12:19:09;;;;;;;0.80;0.50;;;;;;;;;;5091894;28;20444;-73
2022/07/26 12:21:44;;;;;;;0.90;0.70;;;;;;;;;;5091256;28;20484;-72
2022/07/26 12:24:12;;;;;;;0.80;0.70;;;;;;;;;;5091500;28;20451;-73
2022/07/26 12:26:40;;;;;;;1.40;1.03;;;;;;;;;;5091315;28;20876;-73
2022/07/26 12:29:24;;;;;;;0.60;0.50;;;;;;;;;;5091884;28;20820;-73
2022/07/26 12:32:01;;;;;;;1.10;0.63;;;;;;;;;;5092089;28;20448;-73
2022/07/26 12:34:28;;;;;;;0.80;0.60;;;;;;;;;;5091288;28;20483;-73
2022/07/26 12:36:56;;;;;;;0.70;0.70;;;;;;;;;;5094681;28;20449;-73
2022/07/26 12:39:23;;;;;;;0.90;0.70;;;;;;;;;;5092737;28;20894;-73
2022/07/26 12:41:51;;;;;;;0.80;0.70;;;;;;;;;;5092855;28;20568;-73
2022/07/26 12:44:21;;;;;;;1.30;0.70;;;;;;;;;;5091236;28;20452;-72
2022/07/26 12:46:48;;;;;;;1.17;0.70;;;;;;;;;;5091123;28;20436;-73
2022/07/26 12:49:16;;;;;;;0.80;0.70;;;;;;;;;;5091758;28;20547;-73
2022/07/26 12:51:43;;;;;;;0.77;0.60;;;;;;;;;;5090868;28;20463;-73
2022/07/26 12:54:10;;;;;;;1.40;0.97;;;;;;;;;;5091217;28;20455;-73
2022/07/26 12:56:37;;;;;;;1.07;0.70;;;;;;;;;;5091723;28;20802;-73
2022/07/26 12:59:05;;;;;;;0.97;0.67;;;;;;;;;;5093890;28;20451;-69
2022/07/26 13:01:33;;;;;;;1.10;0.80;;;;;;;;;;5102409;28;20476;-73
2022/07/26 13:04:00;;;;;;;0.90;0.70;;;;;;;;;;5106341;28;20472;-74
2022/07/26 13:06:27;;;;;;;1.23;0.90;;;;;;;;;;5110103;28;20439;-74
2022/07/26 13:08:55;;;;;;;1.03;0.60;;;;;;;;;;5093540;28;20453;-72
2022/07/26 13:11:22;;;;;;;1.53;0.80;;;;;;;;;;5092797;28;20453;-69
2022/07/26 13:13:49;;;;;;;0.90;0.87;;;;;;;;;;5092841;28;20544;-73
2022/07/26 13:16:16;;;;;;;1.30;1.20;;;;;;;;;;5091893;28;20444;-72
2022/07/26 13:18:45;;;;;;;1.23;0.70;;;;;;;;;;5090775;28;20940;-73
2022/07/26 13:21:12;;;;;;;0.70;0.60;;;;;;;;;;5091438;28;20909;-73
2022/07/26 13:23:39;;;;;;;2.60;0.77;;;;;;;;;;5091205;28;21257;-73
2022/07/26 13:26:06;;;;;;;0.90;0.73;;;;;;;;;;5091019;28;20936;-72
2022/07/26 13:28:34;;;;;;;1.90;0.80;;;;;;;;;;5091112;28;20451;-70
2022/07/26 13:31:01;;;;;;;0.63;0.60;;;;;;;;;;5091443;28;20453;-73
2022/07/26 13:33:28;;;;;;;0.90;0.70;;;;;;;;;;5090678;28;20551;-69
2022/07/26 13:35:57;;;;;;;0.77;0.70;;;;;;;;;;5093446;28;20445;-70
2022/07/26 13:38:24;;;;;;;1.63;0.60;;;;;;;;;;5090554;28;20484;-70
2022/07/26 13:40:51;;;;;;;0.63;0.50;;;;;;;;;;5090098;28;20456;-72
2022/07/26 13:43:18;;;;;;;1.20;1.10;;;;;;;;;;5090812;28;20455;-73
2022/07/26 13:45:45;;;;;;;0.60;0.50;;;;;;;;;;5090019;28;20455;-72
2022/07/26 13:48:12;;;;;;;1.83;0.70;;;;;;;;;;5091040;28;20445;-73
2022/07/26 13:50:40;;;;;;;1.37;0.50;;;;;;;;;;5090302;28;20891;-73
2022/07/26 13:53:08;;;;;;;1.00;0.90;;;;;;;;;;5090249;28;20966;-72
2022/07/26 13:55:35;;;;;;;1.30;0.70;;;;;;;;;;5089662;28;20447;-72
2022/07/26 13:58:02;;;;;;;0.83;0.70;;;;;;;;;;5090346;28;20452;-71
2022/07/26 14:00:30;;;;;;;2.87;0.70;;;;;;;;;;5090597;28;20437;-72
2022/07/26 14:02:58;;;;;;;0.90;0.60;;;;;;;;;;5089950;28;20500;-72
2022/07/26 14:05:28;;;;;;;0.80;0.60;;;;;;;;;;5094708;28;20458;-72
2022/07/26 14:07:56;;;;;;;1.30;1.20;;;;;;;;;;5095692;28;20923;-72
2022/07/26 14:10:25;;;;;;;0.90;0.60;;;;;;;;;;5090297;28;20987;-71
2022/07/26 14:12:52;;;;;;;1.13;1.03;;;;;;;;;;5089769;28;20452;-72
2022/07/26 14:15:20;;;;;;;0.80;0.70;;;;;;;;;;5089877;28;20491;-74
2022/07/26 14:17:47;;;;;;;1.23;0.63;;;;;;;;;;5089855;28;20452;-71
2022/07/26 14:20:15;;;;;;;1.47;0.77;;;;;;;;;;5090132;28;20461;-71
2022/07/26 14:22:42;;;;;;;0.83;0.70;;;;;;;;;;5089321;28;20525;-71
2022/07/26 14:25:10;;;;;;;0.80;0.80;;;;;;;;;;5089645;28;20901;-71
2022/07/26 14:27:39;;;;;;;1.03;0.70;;;;;;;;;;5087102;28;20875;-71
2022/07/26 14:30:06;;;;;;;0.70;0.60;;;;;;;;;;5092449;28;20255;-72
2022/07/26 14:32:33;;;;;;;0.90;0.68;;;;;;;;;;5091522;28;20190;-70
2022/07/26 14:35:01;;;;;;;1.38;0.93;;;;;;;;;;5091344;28;20222;-72
2022/07/26 14:37:28;;;;;;;0.95;0.73;;;;;;;;;;5092151;28;20258;-73
2022/07/26 14:39:55;;;;;;;1.27;0.95;;;;;;;;;;5091263;28;20293;-72
2022/07/26 14:42:22;;;;;;;1.27;0.77;;;35.10;1.00;;;;;;5089587;28;20284;-69
2022/07/26 14:44:50;;;;;;;1.67;1.13;;;;;;;;;;5084903;28;20526;-73
2022/07/26 14:47:17;;;;;;;1.25;1.00;;;;;;;;;;5091776;28;20187;-72
2022/07/26 14:49:44;;;;;;;1.00;0.75;;;;;;;;;;5091848;28;20650;-72